createdAt,value
2018-12-08T00:01:27.247Z,95966.15
2018-12-08T00:03:57.747Z,95947.96
2018-12-08T00:06:27.679Z,95956.67
2018-12-08T00:08:57.590Z,95966.59
2018-12-08T00:11:27.348Z,95977.67
2018-12-08T00:13:57.164Z,95970.91
2018-12-08T00:16:27.559Z,95966.69
2018-12-08T00:22:34.084Z,95971.30
2018-12-08T00:25:04.575Z,95983.92
2018-12-08T00:27:34.526Z,95997.69
2018-12-08T00:30:19.991Z,95991.07
2018-12-08T00:32:50.095Z,95991.78
2018-12-08T00:35:20.095Z,95978.41
2018-12-08T00:37:50.009Z,95971.47
2018-12-08T00:40:19.914Z,95975.22
2018-12-08T00:42:49.808Z,95979.47
2018-12-08T00:45:19.672Z,95992.35
2018-12-08T00:55:04.980Z,96009.92
2018-12-08T00:57:34.992Z,96015.97
2018-12-08T01:00:07.275Z,96023.96
2018-12-08T01:02:37.221Z,96038.34
2018-12-08T01:05:08.332Z,96042.46
2018-12-08T01:07:38.554Z,96066.42
2018-12-08T01:10:08.947Z,96059.02
2018-12-08T01:12:38.784Z,96056.01
2018-12-08T01:15:09.343Z,96049.03
2018-12-08T01:17:39.849Z,96054.28
2018-12-08T01:20:10.841Z,96050.80
2018-12-08T01:22:40.741Z,96046.09
2018-12-08T01:25:10.729Z,96054.00
2018-12-08T01:27:41.078Z,96042.84
2018-12-08T01:30:11.655Z,96058.06
2018-12-08T01:32:42.184Z,96052.52
2018-12-08T01:35:12.101Z,96050.19
2018-12-08T01:37:41.991Z,96051.77
2018-12-08T01:40:11.948Z,96058.71
2018-12-08T01:42:41.911Z,96056.80
2018-12-08T01:45:12.733Z,96057.39
2018-12-08T01:47:42.703Z,96067.35
2018-12-08T01:50:12.589Z,96061.52
2018-12-08T01:52:42.590Z,96054.25
2018-12-08T01:55:12.464Z,96053.50
2018-12-08T01:57:42.792Z,96047.45
2018-12-08T02:00:14.087Z,96059.09
2018-12-08T02:02:44.426Z,96051.41
2018-12-08T02:05:14.862Z,96050.28
2018-12-08T02:07:44.718Z,96042.40
2018-12-08T02:10:15.436Z,96039.19
2018-12-08T02:12:45.375Z,96038.70
2018-12-08T02:15:15.336Z,96035.48
2018-12-08T02:17:45.340Z,96016.78
2018-12-08T02:20:16.316Z,96000.27
2018-12-08T02:22:46.112Z,96013.38
2018-12-08T02:25:15.909Z,96008.16
2018-12-08T02:27:45.898Z,96011.80
2018-12-08T02:30:16.356Z,96008.38
2018-12-08T02:32:46.209Z,96003.46
2018-12-08T02:35:16.467Z,96005.27
2018-12-08T02:37:46.249Z,95996.85
2018-12-08T02:40:17.175Z,96001.13
2018-12-08T02:42:47.060Z,96013.38
2018-12-08T02:45:17.616Z,96014.91
2018-12-08T02:47:47.513Z,96006.66
2018-12-08T02:50:17.352Z,96007.37
2018-12-08T02:52:47.399Z,96006.73
2018-12-08T02:55:17.258Z,96001.55
2018-12-08T02:57:47.224Z,96003.95
2018-12-08T03:00:17.604Z,96006.16
2018-12-08T03:02:47.451Z,96001.42
2018-12-08T03:06:18.127Z,95998.50
2018-12-08T03:08:48.008Z,96014.44
2018-12-08T03:11:19.134Z,96016.02
2018-12-08T03:13:48.980Z,96012.38
2018-12-08T03:16:18.755Z,96006.04
2018-12-08T03:18:48.783Z,96003.34
2018-12-08T03:21:18.854Z,96009.67
2018-12-08T03:23:48.649Z,95998.64
2018-12-08T03:26:18.518Z,96002.62
2018-12-08T03:28:48.421Z,96009.11
2018-12-08T03:31:18.375Z,96015.16
2018-12-08T03:33:49.562Z,96031.52
2018-12-08T03:36:19.635Z,96016.21
2018-12-08T03:38:50.052Z,96032.06
2018-12-08T03:41:20.012Z,96029.81
2018-12-08T03:43:49.853Z,96042.52
2018-12-08T03:46:19.654Z,96044.66
2018-12-08T03:48:49.472Z,96040.39
2018-12-08T03:51:19.310Z,96041.40
2018-12-08T03:53:49.330Z,96045.16
2018-12-08T03:56:19.209Z,96046.80
2018-12-08T03:58:49.043Z,96040.68
2018-12-08T04:01:18.908Z,96039.41
2018-12-08T04:03:48.712Z,96032.66
2018-12-08T04:06:18.752Z,96030.78
2018-12-08T04:08:48.575Z,96034.84
2018-12-08T04:11:18.387Z,96031.84
2018-12-08T04:13:48.536Z,96029.88
2018-12-08T04:16:18.795Z,96027.74
2018-12-08T04:18:48.975Z,96023.69
2018-12-08T04:21:18.788Z,96014.15
2018-12-08T04:23:48.613Z,96002.50
2018-12-08T04:26:18.554Z,96007.95
2018-12-08T04:28:48.429Z,96002.21
2018-12-08T04:31:18.305Z,96009.61
2018-12-08T04:33:48.122Z,96001.35
2018-12-08T04:36:18.006Z,96017.20
2018-12-08T04:38:47.825Z,96015.28
2018-12-08T04:41:17.643Z,96026.89
2018-12-08T04:43:47.447Z,96035.70
2018-12-08T04:46:18.077Z,96031.99
2018-12-08T04:52:23.599Z,96027.79
2018-12-08T04:54:53.459Z,96036.13
2018-12-08T04:57:23.257Z,96040.18
2018-12-08T04:59:53.139Z,96031.13
2018-12-08T05:02:23.088Z,96036.13
2018-12-08T05:04:52.938Z,96036.34
2018-12-08T05:07:22.738Z,96034.41
2018-12-08T05:09:52.510Z,96041.61
2018-12-08T05:12:22.301Z,96044.73
2018-12-08T05:14:52.204Z,96046.87
2018-12-08T05:17:22.829Z,96053.26
2018-12-08T05:19:52.796Z,96041.88
2018-12-08T05:22:22.614Z,96054.69
2018-12-08T05:24:52.526Z,96052.33
2018-12-08T05:27:23.204Z,96058.97
2018-12-08T05:29:53.822Z,96064.00
2018-12-08T05:32:23.692Z,96059.95
2018-12-08T05:34:53.508Z,96058.59
2018-12-08T05:37:23.400Z,96059.02
2018-12-08T05:39:53.366Z,96061.41
2018-12-08T05:42:23.144Z,96063.78
2018-12-08T05:44:53.017Z,96069.83
2018-12-08T05:47:22.836Z,96071.55
2018-12-08T05:49:53.140Z,96057.66
2018-12-08T05:52:23.478Z,96071.75
2018-12-08T05:54:53.355Z,96075.23
2018-12-08T05:57:23.187Z,96070.20
2018-12-08T05:59:53.013Z,96073.20
2018-12-08T06:02:22.901Z,96085.80
2018-12-08T06:04:52.990Z,96088.30
2018-12-08T06:07:23.384Z,96094.28
2018-12-08T06:09:53.179Z,96093.06
2018-12-08T06:12:24.036Z,96083.04
2018-12-08T06:14:53.861Z,96084.59
2018-12-08T06:17:23.767Z,96085.15
2018-12-08T06:19:53.731Z,96086.31
2018-12-08T06:22:23.529Z,96086.95
2018-12-08T06:24:53.565Z,96083.53
2018-12-08T06:27:53.004Z,96081.96
2018-12-08T06:45:16.829Z,96093.15
2018-12-08T06:47:46.810Z,96099.69
2018-12-08T06:50:16.703Z,96101.26
2018-12-08T06:52:46.537Z,96102.95
2018-12-08T06:55:16.400Z,96110.50
2018-12-08T06:57:46.329Z,96094.69
2018-12-08T07:00:16.152Z,96097.06
2018-12-08T07:02:45.947Z,96110.62
2018-12-08T07:05:15.839Z,96110.62
2018-12-08T07:07:45.642Z,96104.31
2018-12-08T07:11:16.785Z,96101.02
2018-12-08T07:13:46.693Z,96093.61
2018-12-08T07:16:16.862Z,96108.02
2018-12-08T07:18:46.736Z,96106.30
2018-12-08T07:21:17.231Z,96107.75
2018-12-08T07:23:47.086Z,96102.71
2018-12-08T07:26:16.960Z,96097.86
2018-12-08T07:28:46.838Z,96118.56
2018-12-08T07:31:17.101Z,96111.09
2018-12-08T07:33:47.029Z,96119.44
2018-12-08T07:36:16.878Z,96121.01
2018-12-08T07:38:46.730Z,96125.06
2018-12-08T07:41:16.648Z,96122.50
2018-12-08T07:43:46.697Z,96124.61
2018-12-08T07:46:16.574Z,96133.09
2018-12-08T07:48:46.423Z,96135.66
2018-12-08T07:51:16.339Z,96134.87
2018-12-08T07:53:46.227Z,96117.66
2018-12-08T07:56:15.997Z,96131.74
2018-12-08T07:58:46.454Z,96124.90
2018-12-08T08:01:16.252Z,96121.07
2018-12-08T08:03:46.139Z,96110.59
2018-12-08T08:06:15.994Z,96125.27
2018-12-08T08:08:45.840Z,96117.35
2018-12-08T08:11:16.262Z,96104.70
2018-12-08T08:13:46.209Z,96118.93
2018-12-08T08:16:16.084Z,96126.20
2018-12-08T08:18:46.039Z,96133.30
2018-12-08T08:21:16.007Z,96124.91
2018-12-08T08:23:46.101Z,96119.79
2018-12-08T08:26:16.028Z,96115.38
2018-12-08T08:28:46.033Z,96108.61
2018-12-08T08:31:15.929Z,96112.16
2018-12-08T08:33:45.831Z,96110.24
2018-12-08T08:36:15.682Z,96111.53
2018-12-08T08:38:45.585Z,96103.70
2018-12-08T08:41:15.456Z,96104.77
2018-12-08T08:43:45.290Z,96102.34
2018-12-08T08:46:15.654Z,96108.53
2018-12-08T08:48:45.437Z,96110.95
2018-12-08T08:51:15.753Z,96121.54
2018-12-08T08:53:45.788Z,96129.20
2018-12-08T08:56:15.921Z,96122.25
2018-12-08T08:58:46.888Z,96114.14
2018-12-08T09:01:16.806Z,96116.47
2018-12-08T09:03:46.764Z,96124.02
2018-12-08T09:06:16.725Z,96113.06
2018-12-08T09:08:46.724Z,96119.03
2018-12-08T09:11:16.685Z,96115.77
2018-12-08T09:13:46.562Z,96116.83
2018-12-08T09:16:16.407Z,96106.28
2018-12-08T09:18:46.433Z,96098.12
2018-12-08T09:21:16.482Z,96099.61
2018-12-08T09:23:46.448Z,96097.11
2018-12-08T09:26:16.371Z,96094.69
2018-12-08T09:28:46.338Z,96100.97
2018-12-08T09:31:16.499Z,96106.92
2018-12-08T09:33:46.526Z,96105.42
2018-12-08T09:36:16.390Z,96089.54
2018-12-08T09:38:47.020Z,96076.34
2018-12-08T09:41:17.071Z,96061.62
2018-12-08T09:43:47.476Z,96074.43
2018-12-08T09:46:17.575Z,96078.05
2018-12-08T09:48:47.538Z,96075.94
2018-12-08T09:51:17.551Z,96075.78
2018-12-08T09:53:48.366Z,96064.73
2018-12-08T09:56:18.539Z,96081.05
2018-12-08T09:58:48.526Z,96089.80
2018-12-08T10:01:18.490Z,96073.69
2018-12-08T10:03:49.139Z,96071.46
2018-12-08T10:06:19.567Z,96065.55
2018-12-08T10:08:49.533Z,96050.45
2018-12-08T10:11:19.493Z,96060.64
2018-12-08T10:13:49.515Z,96058.72
2018-12-08T10:16:19.587Z,96055.08
2018-12-08T10:26:01.196Z,96044.70
2018-12-08T10:28:31.272Z,96048.44
2018-12-08T10:31:01.873Z,96040.18
2018-12-08T10:33:32.804Z,96033.23
2018-12-08T10:36:03.078Z,96041.45
2018-12-08T10:46:19.842Z,96025.77
2018-12-08T10:48:49.805Z,96023.63
2018-12-08T10:51:20.461Z,96016.55
2018-12-08T10:53:50.953Z,96023.22
2018-12-08T10:56:20.961Z,96011.75
2018-12-08T10:58:52.033Z,96007.59
2018-12-08T11:01:27.572Z,95988.31
2018-12-08T11:03:58.745Z,95997.86
2018-12-08T11:06:28.793Z,95983.59
2018-12-08T11:08:58.808Z,95977.38
2018-12-08T11:18:40.189Z,95980.18
2018-12-08T11:21:10.389Z,95970.19
2018-12-08T11:23:40.449Z,95971.10
2018-12-08T11:26:10.503Z,95971.48
2018-12-08T11:28:40.437Z,95981.94
2018-12-08T11:38:21.975Z,95977.58
2018-12-08T11:40:51.811Z,95952.70
2018-12-08T11:43:23.489Z,95966.36
2018-12-08T11:45:53.783Z,95954.55
2018-12-08T11:48:23.668Z,95980.59
2018-12-08T11:55:19.107Z,95985.11
2018-12-08T11:57:49.183Z,95982.70
2018-12-08T12:00:19.041Z,95989.03
2018-12-08T12:02:48.803Z,95986.86
2018-12-08T12:05:18.719Z,96001.66
2018-12-08T12:15:00.386Z,95967.31
2018-12-08T12:17:30.245Z,95967.39
2018-12-08T12:20:00.045Z,95965.06
2018-12-08T12:22:29.913Z,95967.33
2018-12-08T12:25:00.229Z,95959.72
2018-12-08T12:34:41.261Z,95953.00
2018-12-08T12:37:11.101Z,95955.38
2018-12-08T12:39:40.939Z,95946.70
2018-12-08T12:42:10.831Z,95953.91
2018-12-08T12:44:40.659Z,95935.56
2018-12-08T13:00:23.917Z,95970.81
2018-12-08T13:13:41.265Z,95940.70
2018-12-08T13:16:11.094Z,95942.33
2018-12-08T13:18:40.999Z,95930.75
2018-12-08T13:21:10.869Z,95926.19
2018-12-08T13:23:41.110Z,95929.70
2018-12-08T13:26:11.121Z,95932.46
2018-12-08T13:28:41.087Z,95927.56
2018-12-08T13:31:10.973Z,95924.50
2018-12-08T13:33:41.491Z,95916.59
2018-12-08T13:36:12.642Z,95921.90
2018-12-08T13:38:43.812Z,95910.31
2018-12-08T13:41:17.754Z,95915.13
2018-12-08T13:43:56.085Z,95909.36
2018-12-08T13:46:25.977Z,95906.88
2018-12-08T13:48:55.975Z,95911.38
2018-12-08T13:51:26.006Z,95907.27
2018-12-08T13:53:55.904Z,95921.16
2018-12-08T13:56:25.786Z,95925.34
2018-12-08T13:58:55.679Z,95923.92
2018-12-08T14:01:25.570Z,95938.56
2018-12-08T14:07:30.891Z,95950.33
2018-12-08T14:10:00.934Z,95947.99
2018-12-08T14:12:30.924Z,95946.56
2018-12-08T14:15:00.822Z,95943.95
2018-12-08T14:17:30.803Z,95950.48
2018-12-08T14:23:36.061Z,95938.55
2018-12-08T14:26:06.011Z,95942.78
2018-12-08T14:28:36.320Z,95941.30
2018-12-08T14:31:06.301Z,95943.54
2018-12-08T14:33:36.213Z,95952.04
2018-12-08T14:36:06.440Z,95954.27
2018-12-08T14:38:36.504Z,95953.48
2018-12-08T14:41:06.436Z,95944.86
2018-12-08T14:43:36.389Z,95946.78
2018-12-08T14:46:06.870Z,95946.25
2018-12-08T14:48:36.900Z,95947.09
2018-12-08T14:51:09.282Z,95947.19
2018-12-08T14:53:39.338Z,95939.50
2018-12-08T14:56:10.593Z,95952.09
2018-12-08T14:58:40.641Z,95954.98
2018-12-08T15:01:10.671Z,95959.67
2018-12-08T15:03:41.348Z,95950.58
2018-12-08T15:06:11.329Z,95965.25
2018-12-08T15:08:41.191Z,95948.28
2018-12-08T15:11:11.103Z,95951.05
2018-12-08T15:13:42.587Z,95936.88
2018-12-08T15:16:12.554Z,95942.70
2018-12-08T15:18:43.191Z,95930.52
2018-12-08T15:21:13.097Z,95948.50
2018-12-08T15:23:42.953Z,95930.11
2018-12-08T15:26:14.920Z,95926.77
2018-12-08T15:28:46.439Z,95921.11
2018-12-08T15:31:17.100Z,95929.81
2018-12-08T15:33:47.699Z,95921.47
2018-12-08T15:36:17.621Z,95928.86
2018-12-08T15:38:48.831Z,95928.86
2018-12-08T15:41:18.768Z,95926.77
2018-12-08T15:43:48.621Z,95930.63
2018-12-08T15:46:18.999Z,95928.80
2018-12-08T15:48:48.953Z,95931.16
2018-12-08T15:51:18.763Z,95927.09
2018-12-08T15:53:48.554Z,95931.32
2018-12-08T15:59:53.879Z,95925.66
2018-12-08T16:02:24.254Z,95912.31
2018-12-08T16:04:54.317Z,95926.31
2018-12-08T16:07:24.117Z,95939.28
2018-12-08T16:09:54.018Z,95929.27
2018-12-08T16:12:23.851Z,95926.53
2018-12-08T16:14:54.334Z,95925.97
2018-12-08T16:17:25.169Z,95936.98
2018-12-08T16:19:55.462Z,95917.00
2018-12-08T16:22:25.623Z,95909.82
2018-12-08T16:24:55.421Z,95905.60
2018-12-08T16:27:25.900Z,95890.30
2018-12-08T16:29:55.960Z,95908.36
2018-12-08T16:33:17.136Z,95903.14
2018-12-08T16:35:47.327Z,95905.69
2018-12-08T16:38:17.803Z,95889.55
2018-12-08T16:40:49.199Z,95895.55
2018-12-08T16:43:19.148Z,95897.53
2018-12-08T16:45:49.438Z,95907.06
2018-12-08T16:48:19.312Z,95906.85
2018-12-08T16:50:49.180Z,95905.94
2018-12-08T17:00:30.204Z,95899.34
2018-12-08T17:03:00.062Z,95897.48
2018-12-08T17:05:30.011Z,95904.09
2018-12-08T17:08:00.256Z,95905.06
2018-12-08T17:10:30.622Z,95908.72
2018-12-08T17:13:00.610Z,95898.67
2018-12-08T17:15:30.871Z,95896.86
2018-12-08T17:18:00.979Z,95875.41
2018-12-08T17:20:30.915Z,95892.41
2018-12-08T17:23:00.883Z,95889.13
2018-12-08T17:25:30.971Z,95885.86
2018-12-08T17:28:00.864Z,95896.12
2018-12-08T17:30:30.794Z,95880.49
2018-12-08T17:33:00.705Z,95891.33
2018-12-08T17:35:30.527Z,95891.33
2018-12-08T17:42:17.371Z,95884.28
2018-12-08T17:44:47.357Z,95899.00
2018-12-08T17:47:17.203Z,95880.95
2018-12-08T17:49:47.115Z,95864.76
2018-12-08T17:52:16.949Z,95859.34
2018-12-08T17:54:50.137Z,95852.97
2018-12-08T17:57:20.081Z,95862.83
2018-12-08T17:59:50.121Z,95856.06
2018-12-08T18:02:20.341Z,95844.66
2018-12-08T18:04:50.354Z,95841.16
2018-12-08T18:07:20.711Z,95836.13
2018-12-08T18:09:50.557Z,95822.78
2018-12-08T18:12:21.587Z,95821.25
2018-12-08T18:14:51.489Z,95815.88
2018-12-08T18:17:21.780Z,95843.94
2018-12-08T18:19:51.731Z,95840.05
2018-12-08T18:22:22.464Z,95824.75
2018-12-08T18:24:52.804Z,95827.72
2018-12-08T18:27:22.641Z,95834.61
2018-12-08T18:29:52.521Z,95836.02
2018-12-08T18:32:22.729Z,95825.52
2018-12-08T18:34:52.565Z,95822.57
2018-12-08T18:37:22.879Z,95822.92
2018-12-08T18:39:52.699Z,95825.22
2018-12-08T18:42:22.521Z,95805.66
2018-12-08T18:44:52.518Z,95817.81
2018-12-08T18:47:22.501Z,95825.71
2018-12-08T18:49:52.631Z,95797.23
2018-12-08T18:52:22.517Z,95796.27
2018-12-08T18:54:52.370Z,95804.79
2018-12-08T19:00:58.165Z,95808.45
2018-12-08T19:03:28.009Z,95809.23
2018-12-08T19:05:57.929Z,95799.38
2018-12-08T19:08:27.903Z,95789.13
2018-12-08T19:10:57.739Z,95784.88
2018-12-08T19:13:27.751Z,95784.60
2018-12-08T19:15:57.619Z,95779.95
2018-12-08T19:18:27.780Z,95775.27
2018-12-08T19:20:57.641Z,95759.44
2018-12-08T19:23:27.535Z,95764.69
2018-12-08T19:29:32.961Z,95749.59
2018-12-08T19:32:02.819Z,95751.56
2018-12-08T19:34:32.717Z,95753.70
2018-12-08T19:37:02.572Z,95730.58
2018-12-08T19:39:32.455Z,95721.96
2018-12-08T19:42:02.507Z,95722.20
2018-12-08T19:44:32.413Z,95715.09
2018-12-08T19:47:02.297Z,95713.78
2018-12-08T19:49:32.204Z,95711.29
2018-12-08T19:52:02.175Z,95712.27
2018-12-08T19:58:08.287Z,95695.23
2018-12-08T20:00:38.263Z,95683.05
2018-12-08T20:03:08.201Z,95682.30
2018-12-08T20:05:38.060Z,95661.44
2018-12-08T20:08:07.955Z,95664.70
2018-12-08T20:10:39.217Z,95655.06
2018-12-08T20:13:09.011Z,95646.02
2018-12-08T20:15:39.699Z,95655.89
2018-12-08T20:18:09.789Z,95649.47
2018-12-08T20:20:39.682Z,95647.38
2018-12-08T20:23:09.733Z,95649.52
2018-12-08T20:25:39.627Z,95649.52
2018-12-08T20:28:09.441Z,95640.04
2018-12-08T20:30:39.300Z,95635.77
2018-12-08T20:33:09.474Z,95630.87
2018-12-08T20:40:15.397Z,95619.16
2018-12-08T20:42:45.257Z,95600.95
2018-12-08T20:45:15.097Z,95586.41
2018-12-08T20:47:44.912Z,95585.05
2018-12-08T20:50:14.820Z,95590.64
2018-12-08T20:52:44.743Z,95588.11
2018-12-08T20:55:15.084Z,95578.28
2018-12-08T20:57:44.951Z,95565.89
2018-12-08T21:00:15.488Z,95557.20
2018-12-08T21:02:48.033Z,95554.55
2018-12-08T21:05:17.824Z,95552.66
2018-12-08T21:07:47.747Z,95556.94
2018-12-08T21:10:17.629Z,95545.97
2018-12-08T21:12:47.982Z,95535.00
2018-12-08T21:15:19.118Z,95523.99
2018-12-08T21:17:48.999Z,95507.57
2018-12-08T21:20:19.050Z,95492.86
2018-12-08T21:22:48.987Z,95483.38
2018-12-08T21:25:19.040Z,95482.59
2018-12-08T21:27:48.930Z,95485.84
2018-12-08T21:30:18.915Z,95487.95
2018-12-08T21:32:48.813Z,95479.64
2018-12-08T21:35:19.428Z,95470.34
2018-12-08T21:37:49.308Z,95462.65
2018-12-08T21:40:29.132Z,95457.80
2018-12-08T21:42:59.155Z,95452.00
2018-12-08T21:49:05.726Z,95446.38
2018-12-08T21:51:35.661Z,95455.85
2018-12-08T21:54:06.116Z,95456.81
2018-12-08T21:56:36.163Z,95457.59
2018-12-08T21:59:06.386Z,95460.48
2018-12-08T22:01:37.411Z,95462.23
2018-12-08T22:04:07.320Z,95460.45
2018-12-08T22:06:38.900Z,95454.47
2018-12-08T22:09:09.173Z,95444.38
2018-12-08T22:11:39.050Z,95434.31
2018-12-08T22:17:44.871Z,95432.50
2018-12-08T22:20:14.833Z,95422.67
2018-12-08T22:22:44.758Z,95392.91
2018-12-08T22:25:14.795Z,95394.28
2018-12-08T22:27:44.698Z,95387.75
2018-12-08T22:30:14.769Z,95399.02
2018-12-08T22:32:44.666Z,95397.09
2018-12-08T22:35:14.578Z,95386.30
2018-12-08T22:37:44.456Z,95363.30
2018-12-08T22:40:14.954Z,95355.77
2018-12-08T22:42:44.770Z,95367.20
2018-12-08T22:45:15.091Z,95370.89
2018-12-08T22:47:45.381Z,95352.71
2018-12-08T22:50:15.275Z,95348.84
2018-12-08T22:52:45.295Z,95349.23
2018-12-08T22:55:15.181Z,95355.42
2018-12-08T22:57:45.038Z,95339.59
2018-12-08T23:00:34.751Z,95350.41
2018-12-08T23:03:04.669Z,95334.38
2018-12-08T23:05:35.322Z,95353.35
2018-12-08T23:08:05.219Z,95328.19
2018-12-08T23:10:35.181Z,95315.63
2018-12-08T23:13:05.014Z,95329.55
2018-12-08T23:15:34.857Z,95321.44
2018-12-08T23:21:40.155Z,95275.56
2018-12-08T23:24:10.678Z,95276.54
2018-12-08T23:26:42.267Z,95291.64
2018-12-08T23:29:12.140Z,95284.67
2018-12-08T23:31:41.993Z,95264.72
2018-12-08T23:34:11.972Z,95256.61
2018-12-08T23:36:42.229Z,95248.46
2018-12-08T23:39:12.209Z,95222.71
2018-12-08T23:41:42.076Z,95195.60
2018-12-08T23:44:11.883Z,95174.70
2018-12-08T23:46:41.750Z,95196.56
2018-12-08T23:49:11.669Z,95212.05
2018-12-08T23:51:41.519Z,95203.31
2018-12-08T23:54:11.424Z,95206.81
2018-12-08T23:56:41.399Z,95218.44
2018-12-08T23:59:11.231Z,95205.66
